sensor_id;sensor_type;location;lat;lon;timestamp;P1;durP1;ratioP1;P2;durP2;ratioP2
52978;SDS011;63430;53.186;6.598;2023-02-16T00:01:50;48.00;;;25.85;;
52978;SDS011;63430;53.186;6.598;2023-02-16T00:03:54;45.10;;;25.95;;
52978;SDS011;63430;53.186;6.598;2023-02-16T00:05:57;50.60;;;27.88;;
52978;SDS011;63430;53.186;6.598;2023-02-16T00:08:00;53.42;;;29.05;;
52978;SDS011;63430;53.186;6.598;2023-02-16T00:10:03;45.00;;;27.23;;
52978;SDS011;63430;53.186;6.598;2023-02-16T00:12:09;48.58;;;27.27;;
52978;SDS011;63430;53.186;6.598;2023-02-16T00:14:40;45.88;;;26.77;;
52978;SDS011;63430;53.186;6.598;2023-02-16T00:16:43;48.75;;;26.50;;
52978;SDS011;63430;53.186;6.598;2023-02-16T00:18:45;47.42;;;27.35;;
52978;SDS011;63430;53.186;6.598;2023-02-16T00:20:49;50.78;;;27.92;;
52978;SDS011;63430;53.186;6.598;2023-02-16T00:22:51;47.65;;;26.95;;
52978;SDS011;63430;53.186;6.598;2023-02-16T00:24:53;46.10;;;26.27;;
52978;SDS011;63430;53.186;6.598;2023-02-16T00:26:57;58.05;;;27.88;;
52978;SDS011;63430;53.186;6.598;2023-02-16T00:29:03;43.60;;;26.92;;
52978;SDS011;63430;53.186;6.598;2023-02-16T00:31:10;49.40;;;26.67;;
52978;SDS011;63430;53.186;6.598;2023-02-16T00:33:19;52.47;;;28.48;;
52978;SDS011;63430;53.186;6.598;2023-02-16T00:35:30;52.28;;;27.60;;
52978;SDS011;63430;53.186;6.598;2023-02-16T00:37:32;46.45;;;26.20;;
52978;SDS011;63430;53.186;6.598;2023-02-16T00:39:35;50.30;;;27.45;;
52978;SDS011;63430;53.186;6.598;2023-02-16T00:41:40;47.67;;;27.35;;
52978;SDS011;63430;53.186;6.598;2023-02-16T00:43:57;49.58;;;26.25;;
52978;SDS011;63430;53.186;6.598;2023-02-16T00:46:00;47.58;;;26.95;;
52978;SDS011;63430;53.186;6.598;2023-02-16T00:48:05;49.08;;;26.73;;
52978;SDS011;63430;53.186;6.598;2023-02-16T00:50:13;45.17;;;26.38;;
52978;SDS011;63430;53.186;6.598;2023-02-16T00:52:23;45.85;;;26.05;;
52978;SDS011;63430;53.186;6.598;2023-02-16T00:54:31;44.65;;;26.30;;
52978;SDS011;63430;53.186;6.598;2023-02-16T00:56:34;42.00;;;25.88;;
52978;SDS011;63430;53.186;6.598;2023-02-16T00:58:37;49.67;;;28.02;;
52978;SDS011;63430;53.186;6.598;2023-02-16T01:00:45;49.13;;;27.00;;
52978;SDS011;63430;53.186;6.598;2023-02-16T01:02:50;46.35;;;27.38;;
52978;SDS011;63430;53.186;6.598;2023-02-16T01:04:58;47.92;;;27.08;;
52978;SDS011;63430;53.186;6.598;2023-02-16T01:07:00;51.75;;;26.58;;
52978;SDS011;63430;53.186;6.598;2023-02-16T01:09:29;42.45;;;25.45;;
52978;SDS011;63430;53.186;6.598;2023-02-16T01:11:50;50.10;;;28.42;;
52978;SDS011;63430;53.186;6.598;2023-02-16T01:13:53;49.50;;;26.20;;
52978;SDS011;63430;53.186;6.598;2023-02-16T01:15:57;44.50;;;24.95;;
52978;SDS011;63430;53.186;6.598;2023-02-16T01:18:03;51.97;;;29.25;;
52978;SDS011;63430;53.186;6.598;2023-02-16T01:20:12;46.75;;;28.15;;
52978;SDS011;63430;53.186;6.598;2023-02-16T01:22:17;48.90;;;26.88;;
52978;SDS011;63430;53.186;6.598;2023-02-16T01:24:19;50.90;;;26.63;;
52978;SDS011;63430;53.186;6.598;2023-02-16T01:26:23;51.28;;;27.40;;
52978;SDS011;63430;53.186;6.598;2023-02-16T01:28:26;50.60;;;27.98;;
52978;SDS011;63430;53.186;6.598;2023-02-16T01:30:28;46.55;;;28.25;;
52978;SDS011;63430;53.186;6.598;2023-02-16T01:32:36;46.22;;;28.15;;
52978;SDS011;63430;53.186;6.598;2023-02-16T01:34:41;44.75;;;27.05;;
52978;SDS011;63430;53.186;6.598;2023-02-16T01:36:47;51.78;;;28.67;;
52978;SDS011;63430;53.186;6.598;2023-02-16T01:38:50;49.55;;;28.23;;
52978;SDS011;63430;53.186;6.598;2023-02-16T01:40:55;50.13;;;27.33;;
52978;SDS011;63430;53.186;6.598;2023-02-16T01:43:09;50.30;;;28.88;;
52978;SDS011;63430;53.186;6.598;2023-02-16T01:45:18;51.63;;;27.20;;
52978;SDS011;63430;53.186;6.598;2023-02-16T01:47:34;49.85;;;26.98;;
52978;SDS011;63430;53.186;6.598;2023-02-16T01:49:39;52.72;;;29.10;;
52978;SDS011;63430;53.186;6.598;2023-02-16T01:51:47;42.10;;;26.38;;
52978;SDS011;63430;53.186;6.598;2023-02-16T01:53:54;43.17;;;26.40;;
52978;SDS011;63430;53.186;6.598;2023-02-16T01:56:09;41.70;;;26.63;;
52978;SDS011;63430;53.186;6.598;2023-02-16T01:58:34;48.25;;;28.83;;
52978;SDS011;63430;53.186;6.598;2023-02-16T02:03:33;47.70;;;27.98;;
52978;SDS011;63430;53.186;6.598;2023-02-16T02:05:55;42.33;;;26.40;;
52978;SDS011;63430;53.186;6.598;2023-02-16T02:08:02;46.05;;;28.35;;
52978;SDS011;63430;53.186;6.598;2023-02-16T02:12:20;38.05;;;23.45;;
52978;SDS011;63430;53.186;6.598;2023-02-16T02:14:30;50.92;;;25.95;;
52978;SDS011;63430;53.186;6.598;2023-02-16T02:16:38;46.38;;;28.13;;
52978;SDS011;63430;53.186;6.598;2023-02-16T02:18:44;54.95;;;28.92;;
52978;SDS011;63430;53.186;6.598;2023-02-16T02:20:51;48.78;;;27.45;;
52978;SDS011;63430;53.186;6.598;2023-02-16T02:23:37;52.67;;;27.05;;
52978;SDS011;63430;53.186;6.598;2023-02-16T02:28:39;46.35;;;27.48;;
52978;SDS011;63430;53.186;6.598;2023-02-16T02:30:54;46.88;;;27.60;;
52978;SDS011;63430;53.186;6.598;2023-02-16T02:33:10;47.80;;;28.05;;
52978;SDS011;63430;53.186;6.598;2023-02-16T02:35:28;48.55;;;27.33;;
52978;SDS011;63430;53.186;6.598;2023-02-16T02:37:47;49.97;;;28.25;;
52978;SDS011;63430;53.186;6.598;2023-02-16T02:39:58;48.42;;;27.88;;
52978;SDS011;63430;53.186;6.598;2023-02-16T02:42:09;39.78;;;26.00;;
52978;SDS011;63430;53.186;6.598;2023-02-16T02:44:26;50.80;;;28.55;;
52978;SDS011;63430;53.186;6.598;2023-02-16T02:46:31;51.42;;;28.15;;
52978;SDS011;63430;53.186;6.598;2023-02-16T02:48:37;44.55;;;26.25;;
52978;SDS011;63430;53.186;6.598;2023-02-16T02:50:40;44.22;;;26.98;;
52978;SDS011;63430;53.186;6.598;2023-02-16T02:53:10;52.83;;;27.15;;
52978;SDS011;63430;53.186;6.598;2023-02-16T02:55:16;41.58;;;26.48;;
52978;SDS011;63430;53.186;6.598;2023-02-16T02:57:38;44.03;;;26.52;;
52978;SDS011;63430;53.186;6.598;2023-02-16T03:00:07;43.78;;;26.52;;
52978;SDS011;63430;53.186;6.598;2023-02-16T03:02:31;55.03;;;27.15;;
52978;SDS011;63430;53.186;6.598;2023-02-16T03:04:36;50.22;;;27.00;;
52978;SDS011;63430;53.186;6.598;2023-02-16T03:06:42;48.38;;;28.08;;
52978;SDS011;63430;53.186;6.598;2023-02-16T03:08:48;51.78;;;26.95;;
52978;SDS011;63430;53.186;6.598;2023-02-16T03:10:56;50.25;;;25.65;;
52978;SDS011;63430;53.186;6.598;2023-02-16T03:13:22;59.53;;;26.75;;
52978;SDS011;63430;53.186;6.598;2023-02-16T03:15:29;43.78;;;26.60;;
52978;SDS011;63430;53.186;6.598;2023-02-16T03:17:34;46.42;;;26.70;;
52978;SDS011;63430;53.186;6.598;2023-02-16T03:19:57;49.45;;;27.75;;
52978;SDS011;63430;53.186;6.598;2023-02-16T03:22:20;46.53;;;26.35;;
52978;SDS011;63430;53.186;6.598;2023-02-16T03:24:41;45.35;;;26.30;;
52978;SDS011;63430;53.186;6.598;2023-02-16T03:27:03;45.85;;;26.70;;
52978;SDS011;63430;53.186;6.598;2023-02-16T03:29:26;45.10;;;25.27;;
52978;SDS011;63430;53.186;6.598;2023-02-16T03:31:33;43.30;;;25.80;;
52978;SDS011;63430;53.186;6.598;2023-02-16T03:33:42;50.83;;;28.35;;
52978;SDS011;63430;53.186;6.598;2023-02-16T03:35:45;44.13;;;27.13;;
52978;SDS011;63430;53.186;6.598;2023-02-16T03:37:48;52.28;;;25.63;;
52978;SDS011;63430;53.186;6.598;2023-02-16T03:39:53;51.03;;;27.88;;
52978;SDS011;63430;53.186;6.598;2023-02-16T03:42:15;40.03;;;24.67;;
52978;SDS011;63430;53.186;6.598;2023-02-16T03:44:17;43.20;;;25.27;;
52978;SDS011;63430;53.186;6.598;2023-02-16T03:46:20;41.60;;;25.48;;
52978;SDS011;63430;53.186;6.598;2023-02-16T03:48:25;47.00;;;27.90;;
52978;SDS011;63430;53.186;6.598;2023-02-16T03:50:28;44.55;;;26.35;;
52978;SDS011;63430;53.186;6.598;2023-02-16T03:52:31;45.10;;;26.48;;
52978;SDS011;63430;53.186;6.598;2023-02-16T03:54:33;44.95;;;27.73;;
52978;SDS011;63430;53.186;6.598;2023-02-16T03:56:36;49.50;;;28.02;;
52978;SDS011;63430;53.186;6.598;2023-02-16T03:58:38;43.97;;;26.83;;
52978;SDS011;63430;53.186;6.598;2023-02-16T04:00:41;44.03;;;26.50;;
52978;SDS011;63430;53.186;6.598;2023-02-16T04:02:51;46.15;;;28.75;;
52978;SDS011;63430;53.186;6.598;2023-02-16T04:04:56;41.72;;;25.70;;
52978;SDS011;63430;53.186;6.598;2023-02-16T04:06:59;40.10;;;25.48;;
52978;SDS011;63430;53.186;6.598;2023-02-16T04:09:02;46.80;;;26.88;;
52978;SDS011;63430;53.186;6.598;2023-02-16T04:11:04;51.30;;;28.15;;
52978;SDS011;63430;53.186;6.598;2023-02-16T04:13:26;48.50;;;28.52;;
52978;SDS011;63430;53.186;6.598;2023-02-16T04:15:29;47.90;;;26.80;;
52978;SDS011;63430;53.186;6.598;2023-02-16T04:17:32;46.13;;;27.85;;
52978;SDS011;63430;53.186;6.598;2023-02-16T04:19:35;47.25;;;27.90;;
52978;SDS011;63430;53.186;6.598;2023-02-16T04:21:40;49.58;;;26.67;;
52978;SDS011;63430;53.186;6.598;2023-02-16T04:23:43;46.33;;;26.98;;
52978;SDS011;63430;53.186;6.598;2023-02-16T04:25:46;48.20;;;27.27;;
52978;SDS011;63430;53.186;6.598;2023-02-16T04:27:49;51.85;;;26.70;;
52978;SDS011;63430;53.186;6.598;2023-02-16T04:29:52;47.58;;;26.42;;
52978;SDS011;63430;53.186;6.598;2023-02-16T04:31:54;48.55;;;26.67;;
52978;SDS011;63430;53.186;6.598;2023-02-16T04:33:57;52.85;;;29.70;;
52978;SDS011;63430;53.186;6.598;2023-02-16T04:36:00;47.20;;;26.75;;
52978;SDS011;63430;53.186;6.598;2023-02-16T04:38:05;55.05;;;29.25;;
52978;SDS011;63430;53.186;6.598;2023-02-16T04:40:08;41.53;;;25.42;;
52978;SDS011;63430;53.186;6.598;2023-02-16T04:42:14;45.03;;;27.08;;
52978;SDS011;63430;53.186;6.598;2023-02-16T04:44:16;49.17;;;27.13;;
52978;SDS011;63430;53.186;6.598;2023-02-16T04:46:19;51.40;;;27.25;;
52978;SDS011;63430;53.186;6.598;2023-02-16T04:48:22;47.75;;;26.58;;
52978;SDS011;63430;53.186;6.598;2023-02-16T04:50:24;48.97;;;27.38;;
52978;SDS011;63430;53.186;6.598;2023-02-16T04:52:27;50.28;;;27.23;;
52978;SDS011;63430;53.186;6.598;2023-02-16T04:54:32;46.78;;;27.70;;
52978;SDS011;63430;53.186;6.598;2023-02-16T04:56:35;43.22;;;25.92;;
52978;SDS011;63430;53.186;6.598;2023-02-16T04:58:38;46.95;;;26.60;;
52978;SDS011;63430;53.186;6.598;2023-02-16T05:00:40;53.25;;;27.40;;
52978;SDS011;63430;53.186;6.598;2023-02-16T05:02:43;43.70;;;26.98;;
52978;SDS011;63430;53.186;6.598;2023-02-16T05:04:45;46.03;;;26.25;;
52978;SDS011;63430;53.186;6.598;2023-02-16T05:06:51;48.65;;;28.50;;
52978;SDS011;63430;53.186;6.598;2023-02-16T05:08:54;45.90;;;26.00;;
52978;SDS011;63430;53.186;6.598;2023-02-16T05:10:59;44.63;;;25.48;;
52978;SDS011;63430;53.186;6.598;2023-02-16T05:13:20;47.40;;;26.05;;
52978;SDS011;63430;53.186;6.598;2023-02-16T05:15:43;50.78;;;28.42;;
52978;SDS011;63430;53.186;6.598;2023-02-16T05:17:46;48.83;;;25.90;;
52978;SDS011;63430;53.186;6.598;2023-02-16T05:19:58;51.08;;;27.58;;
52978;SDS011;63430;53.186;6.598;2023-02-16T05:24:05;45.83;;;25.85;;
52978;SDS011;63430;53.186;6.598;2023-02-16T05:26:12;36.30;;;23.42;;
52978;SDS011;63430;53.186;6.598;2023-02-16T05:28:15;43.08;;;26.85;;
52978;SDS011;63430;53.186;6.598;2023-02-16T05:30:20;42.38;;;26.13;;
52978;SDS011;63430;53.186;6.598;2023-02-16T05:32:23;47.75;;;27.58;;
52978;SDS011;63430;53.186;6.598;2023-02-16T05:34:27;43.80;;;27.50;;
52978;SDS011;63430;53.186;6.598;2023-02-16T05:36:30;47.58;;;26.92;;
52978;SDS011;63430;53.186;6.598;2023-02-16T05:38:33;47.47;;;27.88;;
52978;SDS011;63430;53.186;6.598;2023-02-16T05:40:36;45.65;;;25.42;;
52978;SDS011;63430;53.186;6.598;2023-02-16T05:42:41;52.17;;;28.98;;
52978;SDS011;63430;53.186;6.598;2023-02-16T05:44:45;45.55;;;26.92;;
52978;SDS011;63430;53.186;6.598;2023-02-16T05:46:48;46.08;;;27.02;;
52978;SDS011;63430;53.186;6.598;2023-02-16T05:48:51;43.83;;;25.85;;
52978;SDS011;63430;53.186;6.598;2023-02-16T05:50:56;50.08;;;27.08;;
52978;SDS011;63430;53.186;6.598;2023-02-16T05:52:58;43.63;;;25.27;;
52978;SDS011;63430;53.186;6.598;2023-02-16T05:55:01;43.92;;;26.65;;
52978;SDS011;63430;53.186;6.598;2023-02-16T05:57:03;42.60;;;25.48;;
52978;SDS011;63430;53.186;6.598;2023-02-16T05:59:12;50.28;;;27.77;;
52978;SDS011;63430;53.186;6.598;2023-02-16T06:01:14;46.80;;;25.45;;
52978;SDS011;63430;53.186;6.598;2023-02-16T06:03:17;42.20;;;25.52;;
52978;SDS011;63430;53.186;6.598;2023-02-16T06:05:19;51.65;;;27.58;;
52978;SDS011;63430;53.186;6.598;2023-02-16T06:07:22;45.80;;;25.95;;
52978;SDS011;63430;53.186;6.598;2023-02-16T06:09:24;49.25;;;30.05;;
52978;SDS011;63430;53.186;6.598;2023-02-16T06:11:27;43.47;;;26.20;;
52978;SDS011;63430;53.186;6.598;2023-02-16T06:13:38;45.35;;;26.17;;
52978;SDS011;63430;53.186;6.598;2023-02-16T06:15:44;50.45;;;29.50;;
52978;SDS011;63430;53.186;6.598;2023-02-16T06:17:47;47.88;;;26.77;;
52978;SDS011;63430;53.186;6.598;2023-02-16T06:19:49;46.67;;;26.15;;
52978;SDS011;63430;53.186;6.598;2023-02-16T06:21:52;47.33;;;27.70;;
52978;SDS011;63430;53.186;6.598;2023-02-16T06:23:55;39.08;;;25.33;;
52978;SDS011;63430;53.186;6.598;2023-02-16T06:25:57;39.78;;;25.60;;
52978;SDS011;63430;53.186;6.598;2023-02-16T06:28:00;47.65;;;28.15;;
52978;SDS011;63430;53.186;6.598;2023-02-16T06:30:06;48.08;;;27.15;;
52978;SDS011;63430;53.186;6.598;2023-02-16T06:32:12;40.95;;;26.45;;
52978;SDS011;63430;53.186;6.598;2023-02-16T06:34:14;54.25;;;28.35;;
52978;SDS011;63430;53.186;6.598;2023-02-16T06:36:20;46.72;;;26.52;;
52978;SDS011;63430;53.186;6.598;2023-02-16T06:38:22;46.53;;;27.90;;
52978;SDS011;63430;53.186;6.598;2023-02-16T06:40:26;48.00;;;25.83;;
52978;SDS011;63430;53.186;6.598;2023-02-16T06:42:28;50.45;;;27.75;;
52978;SDS011;63430;53.186;6.598;2023-02-16T06:44:31;43.00;;;26.73;;
52978;SDS011;63430;53.186;6.598;2023-02-16T06:46:42;48.00;;;25.95;;
52978;SDS011;63430;53.186;6.598;2023-02-16T06:48:49;45.63;;;26.90;;
52978;SDS011;63430;53.186;6.598;2023-02-16T06:50:56;46.85;;;28.08;;
52978;SDS011;63430;53.186;6.598;2023-02-16T06:52:58;51.40;;;26.88;;
52978;SDS011;63430;53.186;6.598;2023-02-16T06:55:01;45.95;;;27.40;;
52978;SDS011;63430;53.186;6.598;2023-02-16T06:57:04;47.85;;;28.80;;
52978;SDS011;63430;53.186;6.598;2023-02-16T06:59:06;41.95;;;25.95;;
52978;SDS011;63430;53.186;6.598;2023-02-16T07:01:09;51.30;;;29.25;;
52978;SDS011;63430;53.186;6.598;2023-02-16T07:03:24;48.60;;;28.30;;
52978;SDS011;63430;53.186;6.598;2023-02-16T07:05:29;49.67;;;27.92;;
52978;SDS011;63430;53.186;6.598;2023-02-16T07:07:32;52.95;;;29.83;;
52978;SDS011;63430;53.186;6.598;2023-02-16T07:09:34;49.30;;;26.73;;
52978;SDS011;63430;53.186;6.598;2023-02-16T07:11:38;49.17;;;26.48;;
52978;SDS011;63430;53.186;6.598;2023-02-16T07:13:40;48.28;;;29.13;;
52978;SDS011;63430;53.186;6.598;2023-02-16T07:15:43;48.55;;;28.33;;
52978;SDS011;63430;53.186;6.598;2023-02-16T07:17:46;41.55;;;26.70;;
52978;SDS011;63430;53.186;6.598;2023-02-16T07:19:48;45.65;;;27.08;;
52978;SDS011;63430;53.186;6.598;2023-02-16T07:21:53;44.15;;;26.50;;
52978;SDS011;63430;53.186;6.598;2023-02-16T07:23:56;38.10;;;25.20;;
52978;SDS011;63430;53.186;6.598;2023-02-16T07:25:58;48.97;;;28.67;;
52978;SDS011;63430;53.186;6.598;2023-02-16T07:28:06;53.70;;;28.55;;
52978;SDS011;63430;53.186;6.598;2023-02-16T07:30:09;51.25;;;28.98;;
52978;SDS011;63430;53.186;6.598;2023-02-16T07:32:12;43.83;;;26.52;;
52978;SDS011;63430;53.186;6.598;2023-02-16T07:34:15;48.83;;;26.95;;
52978;SDS011;63430;53.186;6.598;2023-02-16T07:38:25;46.88;;;26.92;;
52978;SDS011;63430;53.186;6.598;2023-02-16T07:40:27;54.22;;;28.40;;
52978;SDS011;63430;53.186;6.598;2023-02-16T07:42:30;43.55;;;26.80;;
52978;SDS011;63430;53.186;6.598;2023-02-16T07:44:33;43.15;;;26.92;;
52978;SDS011;63430;53.186;6.598;2023-02-16T07:46:36;48.45;;;28.60;;
52978;SDS011;63430;53.186;6.598;2023-02-16T07:48:38;57.38;;;28.75;;
52978;SDS011;63430;53.186;6.598;2023-02-16T07:50:42;52.70;;;29.08;;
52978;SDS011;63430;53.186;6.598;2023-02-16T07:52:48;55.05;;;30.02;;
52978;SDS011;63430;53.186;6.598;2023-02-16T07:54:53;48.05;;;28.17;;
52978;SDS011;63430;53.186;6.598;2023-02-16T07:56:56;56.97;;;29.08;;
52978;SDS011;63430;53.186;6.598;2023-02-16T07:58:59;51.08;;;29.05;;
52978;SDS011;63430;53.186;6.598;2023-02-16T08:01:06;48.13;;;27.45;;
52978;SDS011;63430;53.186;6.598;2023-02-16T08:03:13;46.88;;;29.00;;
52978;SDS011;63430;53.186;6.598;2023-02-16T08:05:16;53.40;;;28.88;;
52978;SDS011;63430;53.186;6.598;2023-02-16T08:09:22;44.70;;;26.15;;
52978;SDS011;63430;53.186;6.598;2023-02-16T08:11:27;48.90;;;27.73;;
52978;SDS011;63430;53.186;6.598;2023-02-16T08:13:32;44.10;;;27.15;;
52978;SDS011;63430;53.186;6.598;2023-02-16T08:15:34;43.08;;;26.67;;
52978;SDS011;63430;53.186;6.598;2023-02-16T08:19:41;48.53;;;28.20;;
52978;SDS011;63430;53.186;6.598;2023-02-16T08:21:44;52.60;;;28.30;;
52978;SDS011;63430;53.186;6.598;2023-02-16T08:23:51;50.33;;;29.08;;
52978;SDS011;63430;53.186;6.598;2023-02-16T08:25:57;60.25;;;29.67;;
52978;SDS011;63430;53.186;6.598;2023-02-16T08:28:03;46.97;;;27.05;;
52978;SDS011;63430;53.186;6.598;2023-02-16T08:30:08;47.88;;;29.05;;
52978;SDS011;63430;53.186;6.598;2023-02-16T08:32:19;54.28;;;28.55;;
52978;SDS011;63430;53.186;6.598;2023-02-16T08:34:38;49.03;;;28.17;;
52978;SDS011;63430;53.186;6.598;2023-02-16T08:36:45;53.22;;;30.00;;
52978;SDS011;63430;53.186;6.598;2023-02-16T08:38:48;47.20;;;28.23;;
52978;SDS011;63430;53.186;6.598;2023-02-16T08:40:51;54.15;;;27.45;;
52978;SDS011;63430;53.186;6.598;2023-02-16T08:42:54;49.15;;;27.50;;
52978;SDS011;63430;53.186;6.598;2023-02-16T08:45:00;53.63;;;28.92;;
52978;SDS011;63430;53.186;6.598;2023-02-16T08:47:02;46.20;;;25.95;;
52978;SDS011;63430;53.186;6.598;2023-02-16T08:49:05;50.90;;;28.58;;
52978;SDS011;63430;53.186;6.598;2023-02-16T08:51:12;47.95;;;26.88;;
52978;SDS011;63430;53.186;6.598;2023-02-16T08:53:16;49.95;;;28.27;;
52978;SDS011;63430;53.186;6.598;2023-02-16T08:55:18;59.38;;;30.58;;
52978;SDS011;63430;53.186;6.598;2023-02-16T08:57:21;49.80;;;27.25;;
52978;SDS011;63430;53.186;6.598;2023-02-16T08:59:26;44.20;;;26.77;;
52978;SDS011;63430;53.186;6.598;2023-02-16T09:01:32;45.60;;;27.20;;
52978;SDS011;63430;53.186;6.598;2023-02-16T09:03:34;39.38;;;25.70;;
52978;SDS011;63430;53.186;6.598;2023-02-16T09:05:39;46.72;;;27.23;;
52978;SDS011;63430;53.186;6.598;2023-02-16T09:07:42;48.15;;;29.23;;
52978;SDS011;63430;53.186;6.598;2023-02-16T09:09:46;48.33;;;27.63;;
52978;SDS011;63430;53.186;6.598;2023-02-16T09:11:49;56.63;;;28.97;;
52978;SDS011;63430;53.186;6.598;2023-02-16T09:13:51;53.88;;;30.00;;
52978;SDS011;63430;53.186;6.598;2023-02-16T09:15:54;51.55;;;28.27;;
52978;SDS011;63430;53.186;6.598;2023-02-16T09:18:05;48.67;;;27.08;;
52978;SDS011;63430;53.186;6.598;2023-02-16T09:20:10;49.63;;;27.83;;
52978;SDS011;63430;53.186;6.598;2023-02-16T09:22:13;51.72;;;29.52;;
52978;SDS011;63430;53.186;6.598;2023-02-16T09:24:15;47.85;;;27.50;;
52978;SDS011;63430;53.186;6.598;2023-02-16T09:26:19;46.97;;;28.33;;
52978;SDS011;63430;53.186;6.598;2023-02-16T09:28:23;45.33;;;26.17;;
52978;SDS011;63430;53.186;6.598;2023-02-16T09:30:25;47.00;;;27.98;;
52978;SDS011;63430;53.186;6.598;2023-02-16T09:32:28;51.65;;;27.75;;
52978;SDS011;63430;53.186;6.598;2023-02-16T09:34:33;56.00;;;28.05;;
52978;SDS011;63430;53.186;6.598;2023-02-16T09:36:38;45.78;;;25.35;;
52978;SDS011;63430;53.186;6.598;2023-02-16T09:38:41;55.63;;;28.23;;
52978;SDS011;63430;53.186;6.598;2023-02-16T09:40:44;58.75;;;29.38;;
52978;SDS011;63430;53.186;6.598;2023-02-16T09:42:50;72.90;;;29.83;;
52978;SDS011;63430;53.186;6.598;2023-02-16T09:45:02;61.23;;;31.33;;
52978;SDS011;63430;53.186;6.598;2023-02-16T09:47:13;47.42;;;28.00;;
52978;SDS011;63430;53.186;6.598;2023-02-16T09:49:22;54.15;;;28.67;;
52978;SDS011;63430;53.186;6.598;2023-02-16T09:51:31;41.88;;;26.33;;
52978;SDS011;63430;53.186;6.598;2023-02-16T09:53:37;50.80;;;27.77;;
52978;SDS011;63430;53.186;6.598;2023-02-16T09:55:42;46.83;;;28.02;;
52978;SDS011;63430;53.186;6.598;2023-02-16T09:57:54;52.35;;;27.88;;
52978;SDS011;63430;53.186;6.598;2023-02-16T10:00:08;50.05;;;29.50;;
52978;SDS011;63430;53.186;6.598;2023-02-16T10:02:33;48.50;;;28.20;;
52978;SDS011;63430;53.186;6.598;2023-02-16T10:04:44;51.10;;;27.13;;
52978;SDS011;63430;53.186;6.598;2023-02-16T10:07:03;42.83;;;25.80;;
52978;SDS011;63430;53.186;6.598;2023-02-16T10:09:19;60.03;;;28.50;;
52978;SDS011;63430;53.186;6.598;2023-02-16T10:11:23;50.55;;;27.02;;
52978;SDS011;63430;53.186;6.598;2023-02-16T10:13:48;56.65;;;29.50;;
52978;SDS011;63430;53.186;6.598;2023-02-16T10:15:57;51.45;;;29.30;;
52978;SDS011;63430;53.186;6.598;2023-02-16T10:20:13;50.72;;;28.45;;
52978;SDS011;63430;53.186;6.598;2023-02-16T10:22:24;52.38;;;29.20;;
52978;SDS011;63430;53.186;6.598;2023-02-16T10:24:40;53.08;;;27.65;;
52978;SDS011;63430;53.186;6.598;2023-02-16T10:26:53;50.30;;;28.80;;
52978;SDS011;63430;53.186;6.598;2023-02-16T10:29:05;47.33;;;27.15;;
52978;SDS011;63430;53.186;6.598;2023-02-16T10:31:11;59.97;;;31.55;;
52978;SDS011;63430;53.186;6.598;2023-02-16T10:33:18;54.17;;;28.48;;
52978;SDS011;63430;53.186;6.598;2023-02-16T10:35:36;56.83;;;28.63;;
52978;SDS011;63430;53.186;6.598;2023-02-16T10:37:52;50.90;;;29.10;;
52978;SDS011;63430;53.186;6.598;2023-02-16T10:40:03;54.75;;;29.73;;
52978;SDS011;63430;53.186;6.598;2023-02-16T10:42:26;56.80;;;29.08;;
52978;SDS011;63430;53.186;6.598;2023-02-16T10:44:35;48.72;;;28.50;;
52978;SDS011;63430;53.186;6.598;2023-02-16T10:46:42;66.60;;;30.45;;
52978;SDS011;63430;53.186;6.598;2023-02-16T10:48:50;55.83;;;28.75;;
52978;SDS011;63430;53.186;6.598;2023-02-16T10:50:54;56.17;;;30.15;;
52978;SDS011;63430;53.186;6.598;2023-02-16T10:53:05;56.55;;;29.88;;
52978;SDS011;63430;53.186;6.598;2023-02-16T10:55:14;53.65;;;28.40;;
52978;SDS011;63430;53.186;6.598;2023-02-16T10:57:19;47.22;;;27.40;;
52978;SDS011;63430;53.186;6.598;2023-02-16T10:59:29;59.03;;;30.45;;
52978;SDS011;63430;53.186;6.598;2023-02-16T11:01:37;59.50;;;29.40;;
52978;SDS011;63430;53.186;6.598;2023-02-16T11:03:46;54.67;;;28.70;;
52978;SDS011;63430;53.186;6.598;2023-02-16T11:05:51;55.83;;;29.95;;
52978;SDS011;63430;53.186;6.598;2023-02-16T11:07:54;60.03;;;30.52;;
52978;SDS011;63430;53.186;6.598;2023-02-16T11:10:06;58.00;;;29.08;;
52978;SDS011;63430;53.186;6.598;2023-02-16T11:12:24;53.33;;;27.80;;
52978;SDS011;63430;53.186;6.598;2023-02-16T11:14:29;55.10;;;28.20;;
52978;SDS011;63430;53.186;6.598;2023-02-16T11:16:32;56.92;;;28.25;;
52978;SDS011;63430;53.186;6.598;2023-02-16T11:18:35;56.85;;;32.15;;
52978;SDS011;63430;53.186;6.598;2023-02-16T11:20:50;63.30;;;31.67;;
52978;SDS011;63430;53.186;6.598;2023-02-16T11:23:05;52.25;;;29.88;;
52978;SDS011;63430;53.186;6.598;2023-02-16T11:25:25;62.17;;;31.45;;
52978;SDS011;63430;53.186;6.598;2023-02-16T11:27:28;47.40;;;28.27;;
52978;SDS011;63430;53.186;6.598;2023-02-16T11:29:30;59.05;;;30.52;;
52978;SDS011;63430;53.186;6.598;2023-02-16T11:31:35;54.67;;;29.83;;
52978;SDS011;63430;53.186;6.598;2023-02-16T11:33:39;62.33;;;32.05;;
52978;SDS011;63430;53.186;6.598;2023-02-16T11:35:45;65.97;;;31.65;;
52978;SDS011;63430;53.186;6.598;2023-02-16T11:37:48;58.28;;;31.08;;
52978;SDS011;63430;53.186;6.598;2023-02-16T11:39:52;55.80;;;29.48;;
52978;SDS011;63430;53.186;6.598;2023-02-16T11:42:06;61.00;;;33.00;;
52978;SDS011;63430;53.186;6.598;2023-02-16T11:44:16;62.75;;;31.50;;
52978;SDS011;63430;53.186;6.598;2023-02-16T11:46:26;61.35;;;33.03;;
52978;SDS011;63430;53.186;6.598;2023-02-16T11:48:30;56.38;;;29.63;;
52978;SDS011;63430;53.186;6.598;2023-02-16T11:50:34;65.03;;;32.58;;
52978;SDS011;63430;53.186;6.598;2023-02-16T11:52:39;65.07;;;33.17;;
52978;SDS011;63430;53.186;6.598;2023-02-16T11:54:46;67.13;;;33.35;;
52978;SDS011;63430;53.186;6.598;2023-02-16T11:59:17;58.60;;;31.20;;
52978;SDS011;63430;53.186;6.598;2023-02-16T12:01:26;63.88;;;31.58;;
52978;SDS011;63430;53.186;6.598;2023-02-16T12:03:52;52.83;;;30.42;;
52978;SDS011;63430;53.186;6.598;2023-02-16T12:06:10;58.40;;;32.28;;
52978;SDS011;63430;53.186;6.598;2023-02-16T12:08:32;61.70;;;32.47;;
52978;SDS011;63430;53.186;6.598;2023-02-16T12:10:56;57.67;;;30.33;;
52978;SDS011;63430;53.186;6.598;2023-02-16T12:13:13;66.32;;;33.28;;
52978;SDS011;63430;53.186;6.598;2023-02-16T12:15:24;57.60;;;31.65;;
52978;SDS011;63430;53.186;6.598;2023-02-16T12:17:40;65.65;;;33.13;;
52978;SDS011;63430;53.186;6.598;2023-02-16T12:19:57;61.78;;;33.65;;
52978;SDS011;63430;53.186;6.598;2023-02-16T12:22:08;57.42;;;31.92;;
52978;SDS011;63430;53.186;6.598;2023-02-16T12:24:24;72.00;;;32.88;;
52978;SDS011;63430;53.186;6.598;2023-02-16T12:26:36;53.05;;;31.27;;
52978;SDS011;63430;53.186;6.598;2023-02-16T12:28:47;63.25;;;32.10;;
52978;SDS011;63430;53.186;6.598;2023-02-16T12:30:59;64.78;;;32.97;;
52978;SDS011;63430;53.186;6.598;2023-02-16T12:33:26;59.92;;;31.30;;
52978;SDS011;63430;53.186;6.598;2023-02-16T12:35:49;65.28;;;33.17;;
52978;SDS011;63430;53.186;6.598;2023-02-16T12:38:06;59.47;;;31.65;;
52978;SDS011;63430;53.186;6.598;2023-02-16T12:40:20;51.38;;;32.92;;
52978;SDS011;63430;53.186;6.598;2023-02-16T12:42:35;62.33;;;30.40;;
52978;SDS011;63430;53.186;6.598;2023-02-16T12:44:55;52.05;;;28.77;;
52978;SDS011;63430;53.186;6.598;2023-02-16T12:47:00;58.15;;;30.65;;